Time;durP1;ratioP1;P1;durP2;ratioP2;P2;SDS_P1;SDS_P2;PMS_P1;PMS_P2;Temp;Humidity;BMP_temperature;BMP_pressure;BME280_temperature;BME280_humidity;BME280_pressure;Samples;Min_cycle;Max_cycle;Signal;HPM_P1;HPM_P2
2022/05/06 00:01:37;;;;;;;30.87;19.47;;;14.60;99.90;;;;;;5029685;28;20227;-72
2022/05/06 00:04:05;;;;;;;28.50;19.00;;;14.60;99.90;;;;;;5014708;28;20600;-73
2022/05/06 00:06:31;;;;;;;23.10;17.70;;;14.40;99.90;;;;;;5013293;28;20431;-72
2022/05/06 00:08:57;;;;;;;22.17;17.70;;;14.40;99.90;;;;;;5012484;28;21010;-73
2022/05/06 00:11:23;;;;;;;25.47;19.70;;;14.40;99.90;;;;;;5014380;28;20475;-72
2022/05/06 00:13:52;;;;;;;22.83;18.53;;;14.40;99.90;;;;;;5015885;28;20463;-73
2022/05/06 00:16:18;;;;;;;23.63;18.57;;;14.40;99.90;;;;;;5031002;28;20450;-73
2022/05/06 00:18:44;;;;;;;25.93;19.80;;;14.60;99.90;;;;;;5013737;28;20428;-72
2022/05/06 00:21:10;;;;;;;28.57;21.70;;;14.50;99.90;;;;;;5013382;28;20449;-73
2022/05/06 00:23:35;;;;;;;25.07;20.43;;;14.50;99.90;;;;;;5014990;28;20204;-73
2022/05/06 00:26:03;;;;;;;33.57;21.63;;;14.50;99.90;;;;;;5017473;28;20761;-72
2022/05/06 00:28:29;;;;;;;27.27;20.77;;;14.60;99.90;;;;;;5014604;28;20197;-72
2022/05/06 00:30:54;;;;;;;30.67;20.83;;;14.60;99.90;;;;;;5016617;28;20585;-73
2022/05/06 00:33:24;;;;;;;25.07;21.70;;;14.70;99.90;;;;;;5015112;28;20899;-73
2022/05/06 00:35:53;;;;;;;25.30;20.70;;;14.70;99.90;;;;;;5012295;28;20174;-73
2022/05/06 00:38:19;;;;;;;24.57;19.33;;;14.70;99.90;;;;;;5015327;28;21017;-73
2022/05/06 00:40:44;;;;;;;30.40;21.37;;;14.50;99.90;;;;;;5014236;28;20441;-73
2022/05/06 00:43:13;;;;;;;28.87;21.43;;;14.60;99.90;;;;;;5015995;28;20212;-72
2022/05/06 00:45:48;;;;;;;28.77;21.80;;;14.40;99.90;;;;;;5013975;28;20562;-72
2022/05/06 00:48:15;;;;;;;27.63;22.20;;;14.30;99.90;;;;;;5015211;28;20445;-72
2022/05/06 00:50:43;;;;;;;27.27;22.10;;;14.40;99.90;;;;;;5032240;28;20463;-73
2022/05/06 00:53:08;;;;;;;27.67;21.17;;;14.50;99.90;;;;;;5015164;28;20446;-72
2022/05/06 00:55:35;;;;;;;28.00;21.80;;;14.30;99.90;;;;;;5016864;28;20447;-72
2022/05/06 00:58:02;;;;;;;28.40;23.57;;;14.20;99.90;;;;;;5014583;28;21214;-72
2022/05/06 01:00:29;;;;;;;26.77;22.13;;;14.30;99.90;;;;;;5014612;28;20859;-72
2022/05/06 01:02:55;;;;;;;32.63;21.43;;;14.30;99.90;;;;;;5006507;28;20452;-72
2022/05/06 01:05:22;;;;;;;26.97;22.10;;;14.30;99.90;;;;;;5013164;28;20455;-72
2022/05/06 01:07:49;;;;;;;29.33;22.00;;;14.40;99.90;;;;;;5011332;28;20439;-72
2022/05/06 01:10:18;;;;;;;30.47;21.13;;;14.50;99.90;;;;;;5014967;28;21055;-72
2022/05/06 01:12:44;;;;;;;28.10;20.10;;;14.50;99.90;;;;;;5010708;28;20528;-72
2022/05/06 01:15:28;;;;;;;25.53;20.63;;;14.40;99.90;;;;;;5029106;28;21114;-72
2022/05/06 01:17:57;;;;;;;28.83;22.30;;;14.40;99.90;;;;;;5011647;28;20431;-72
2022/05/06 01:20:24;;;;;;;26.00;19.60;;;14.30;99.90;;;;;;5012298;28;20616;-73
2022/05/06 01:22:52;;;;;;;28.30;21.83;;;14.40;99.90;;;;;;5010659;28;20506;-72
2022/05/06 01:25:18;;;;;;;24.93;20.07;;;14.50;99.90;;;;;;5010693;28;20423;-73
2022/05/06 01:28:02;;;;;;;31.17;21.70;;;14.30;99.90;;;;;;5016116;28;20451;-73
2022/05/06 01:30:34;;;;;;;26.93;21.60;;;14.50;99.90;;;;;;5013527;28;20532;-73
2022/05/06 01:33:02;;;;;;;28.63;21.77;;;14.30;99.90;;;;;;5014519;28;20965;-73
2022/05/06 01:35:29;;;;;;;34.40;20.60;;;14.20;99.90;;;;;;5012283;28;20509;-73
2022/05/06 01:38:00;;;;;;;30.50;21.33;;;14.10;99.90;;;;;;5014121;28;20547;-74
2022/05/06 01:40:28;;;;;;;29.10;21.00;;;14.20;99.90;;;;;;5011670;28;20435;-73
2022/05/06 01:42:57;;;;;;;28.33;20.07;;;14.00;99.90;;;;;;5010365;28;20508;-73
2022/05/06 01:45:23;;;;;;;28.40;21.40;;;14.10;99.90;;;;;;5017985;28;20529;-74
2022/05/06 01:47:52;;;;;;;25.40;19.83;;;14.30;99.90;;;;;;5013722;28;20436;-73
2022/05/06 01:50:20;;;;;;;27.10;21.20;;;14.40;99.90;;;;;;5012153;28;20475;-71
2022/05/06 01:52:49;;;;;;;24.90;20.30;;;14.40;99.90;;;;;;5012397;28;20903;-73
2022/05/06 01:55:15;;;;;;;26.23;20.83;;;14.40;99.90;;;;;;5013805;28;20440;-72
2022/05/06 01:57:41;;;;;;;26.23;19.67;;;14.30;99.90;;;;;;5009815;28;20474;-73
2022/05/06 02:00:08;;;;;;;25.60;20.17;;;14.50;99.90;;;;;;5013109;28;20444;-72
2022/05/06 02:02:34;;;;;;;26.40;20.10;;;14.50;99.90;;;;;;5014661;28;20471;-73
2022/05/06 02:05:17;;;;;;;28.13;19.20;;;14.60;99.90;;;;;;5013071;28;20435;-73
2022/05/06 02:07:48;;;;;;;25.97;20.90;;;14.50;99.90;;;;;;5010758;28;20654;-72
2022/05/06 02:10:14;;;;;;;26.83;20.37;;;14.60;99.90;;;;;;5012001;28;20468;-72
2022/05/06 02:12:40;;;;;;;27.13;18.93;;;14.70;99.90;;;;;;5024827;28;20498;-73
2022/05/06 02:15:07;;;;;;;27.20;20.50;;;14.50;99.90;;;;;;5012643;28;20471;-72
2022/05/06 02:17:32;;;;;;;29.60;20.30;;;14.60;99.90;;;;;;5010765;28;20181;-72
2022/05/06 02:19:58;;;;;;;21.50;17.80;;;14.50;99.90;;;;;;5011918;28;20949;-72
2022/05/06 02:22:27;;;;;;;26.10;19.47;;;14.50;99.90;;;;;;5019163;28;20242;-72
2022/05/06 02:24:55;;;;;;;26.47;18.20;;;14.40;99.90;;;;;;5014173;28;20189;-73
2022/05/06 02:27:21;;;;;;;24.53;20.70;;;14.30;99.90;;;;;;5012129;28;20443;-73
2022/05/06 02:35:15;;;;;;;29.43;21.17;;;14.40;99.90;;;;;;5011582;28;20434;-72
2022/05/06 02:37:41;;;;;;;28.53;21.03;;;14.50;99.90;;;;;;5016869;28;20427;-72
2022/05/06 02:40:09;;;;;;;30.30;19.93;;;14.40;99.90;;;;;;5011024;28;20967;-72
2022/05/06 02:42:34;;;;;;;29.10;20.87;;;14.30;99.90;;;;;;5011239;28;20212;-73
2022/05/06 02:45:00;;;;;;;26.37;20.70;;;14.20;99.90;;;;;;5030846;28;21257;-72
2022/05/06 02:47:26;;;;;;;31.50;21.80;;;14.20;99.90;;;;;;5017781;28;20189;-73
2022/05/06 02:49:52;;;;;;;23.37;19.17;;;14.20;99.90;;;;;;5019484;28;20178;-73
2022/05/06 02:52:18;;;;;;;25.37;20.00;;;14.30;99.90;;;;;;5016270;28;20181;-73
2022/05/06 02:54:45;;;;;;;24.90;20.60;;;14.40;99.90;;;;;;5018797;28;20514;-73
2022/05/06 02:57:11;;;;;;;25.40;20.10;;;14.60;99.90;;;;;;5016268;28;20431;-72
2022/05/06 02:59:37;;;;;;;25.33;20.60;;;14.60;99.90;;;;;;5018200;28;20426;-72
2022/05/06 03:02:03;;;;;;;30.03;20.43;;;14.60;99.90;;;;;;5014252;28;20427;-73
2022/05/06 03:04:28;;;;;;;28.00;20.50;;;14.50;99.90;;;;;;5014783;28;20458;-72
2022/05/06 03:06:55;;;;;;;29.77;20.30;;;14.40;99.90;;;;;;5018516;28;20438;-72
2022/05/06 03:09:20;;;;;;;23.53;21.00;;;14.40;99.90;;;;;;5014019;28;20191;-72
2022/05/06 03:11:46;;;;;;;32.43;21.90;;;14.30;99.90;;;;;;5015011;28;20999;-72
2022/05/06 03:14:11;;;;;;;26.00;21.77;;;14.20;99.90;;;;;;5016280;28;20208;-72
2022/05/06 03:16:37;;;;;;;26.17;20.87;;;14.10;99.90;;;;;;5018089;28;20269;-73
2022/05/06 03:19:03;;;;;;;26.40;19.60;;;14.00;99.90;;;;;;5016099;28;20215;-73
2022/05/06 03:21:28;;;;;;;26.70;20.20;;;14.30;99.90;;;;;;5014225;28;20283;-72
2022/05/06 03:23:55;;;;;;;28.50;22.20;;;14.50;99.90;;;;;;5015968;28;20846;-72
2022/05/06 03:26:20;;;;;;;26.57;21.20;;;14.50;99.90;;;;;;5019032;28;20176;-73
2022/05/06 03:28:46;;;;;;;25.33;19.57;;;14.40;99.90;;;;;;5015107;28;20442;-73
2022/05/06 03:31:13;;;;;;;26.33;20.67;;;14.50;99.90;;;;;;5010995;28;20298;-73
2022/05/06 03:33:41;;;;;;;30.93;21.60;;;14.50;99.90;;;;;;5013359;28;20200;-73
2022/05/06 03:36:09;;;;;;;27.33;20.67;;;14.50;99.90;;;;;;5010198;28;21063;-75
2022/05/06 03:38:35;;;;;;;26.67;20.77;;;14.40;99.90;;;;;;5013842;28;20558;-73
2022/05/06 03:41:01;;;;;;;29.67;21.27;;;14.40;99.90;;;;;;5026793;28;20518;-73
2022/05/06 03:43:27;;;;;;;27.53;20.23;;;14.50;99.90;;;;;;5012103;28;20205;-73
2022/05/06 03:45:53;;;;;;;24.37;19.90;;;14.30;99.90;;;;;;5014670;28;20258;-73
2022/05/06 03:48:24;;;;;;;25.00;19.73;;;14.40;99.90;;;;;;5030525;28;20436;-74
2022/05/06 03:53:34;;;;;;;32.43;21.90;;;14.20;99.90;;;;;;5018450;28;21024;-72
2022/05/06 03:56:00;;;;;;;26.03;19.57;;;14.20;99.90;;;;;;5009241;28;20432;-74
2022/05/06 03:58:26;;;;;;;28.20;21.53;;;14.30;99.90;;;;;;5015751;28;20180;-74
2022/05/06 04:00:52;;;;;;;33.90;21.67;;;14.20;99.90;;;;;;5014892;28;20271;-73
2022/05/06 04:03:18;;;;;;;30.67;21.03;;;14.20;99.90;;;;;;5015919;28;20203;-73
2022/05/06 04:05:44;;;;;;;27.30;19.97;;;14.40;99.90;;;;;;5015328;28;20478;-73
2022/05/06 04:08:09;;;;;;;28.30;20.03;;;14.50;99.90;;;;;;5015906;28;20185;-73
2022/05/06 04:10:35;;;;;;;25.73;20.40;;;14.50;99.90;;;;;;5019457;28;20208;-73
2022/05/06 04:13:02;;;;;;;30.27;21.43;;;14.40;99.90;;;;;;5016200;28;20196;-73
2022/05/06 04:15:28;;;;;;;29.10;20.87;;;14.50;99.90;;;;;;5033193;28;20830;-73
2022/05/06 04:17:54;;;;;;;26.83;20.27;;;14.60;99.90;;;;;;5011259;28;20442;-73
2022/05/06 04:25:49;;;;;;;41.23;21.77;;;14.50;99.90;;;;;;5012367;28;20446;-75
2022/05/06 04:28:15;;;;;;;28.83;20.70;;;14.30;99.90;;;;;;5010215;28;20501;-73
2022/05/06 04:30:41;;;;;;;27.67;21.07;;;14.50;99.90;;;;;;5013538;28;20484;-72
2022/05/06 04:33:07;;;;;;;24.33;20.00;;;14.60;99.90;;;;;;5006725;28;20589;-73
2022/05/06 04:35:33;;;;;;;29.60;19.20;;;14.60;99.90;;;;;;5010628;28;20181;-73
2022/05/06 04:37:58;;;;;;;26.30;20.33;;;14.70;99.90;;;;;;5012519;28;20179;-73
2022/05/06 04:40:24;;;;;;;22.67;19.20;;;14.80;99.90;;;;;;5006480;28;20427;-73
2022/05/06 04:42:50;;;;;;;22.50;18.00;;;14.90;99.90;;;;;;5013279;28;20826;-74
2022/05/06 04:45:16;;;;;;;24.77;19.33;;;14.90;99.90;;;;;;5008829;28;20268;-74
2022/05/06 04:47:42;;;;;;;18.20;16.27;;;15.00;99.90;;;;;;5010250;28;20274;-74
2022/05/06 04:50:08;;;;;;;21.47;17.80;;;15.00;99.90;;;;;;5011174;28;20181;-74
2022/05/06 04:52:33;;;;;;;23.80;17.43;;;15.10;99.90;;;;;;5012169;28;20467;-74
2022/05/06 04:54:59;;;;;;;19.63;15.77;;;15.10;99.90;;;;;;5013857;28;20894;-73
2022/05/06 04:57:25;;;;;;;18.73;15.23;;;15.20;99.90;;;;;;5009833;28;20274;-73
2022/05/06 04:59:50;;;;;;;17.57;14.90;;;15.10;99.90;;;;;;5009576;28;20374;-73
2022/05/06 05:02:17;;;;;;;20.10;14.80;;;15.20;99.90;;;;;;5006755;28;20271;-73
2022/05/06 05:04:43;;;;;;;19.10;14.60;;;15.10;99.90;;;;;;5018582;28;20188;-74
2022/05/06 05:07:09;;;;;;;17.17;13.80;;;15.10;99.90;;;;;;5004850;28;20440;-73
2022/05/06 05:09:35;;;;;;;17.13;13.83;;;15.20;99.90;;;;;;5005528;28;20530;-74
2022/05/06 05:12:01;;;;;;;16.80;13.80;;;15.30;99.90;;;;;;5008718;28;20885;-73
2022/05/06 05:14:27;;;;;;;16.40;14.17;;;15.20;99.90;;;;;;5012238;28;20196;-74
2022/05/06 05:16:52;;;;;;;18.63;12.90;;;15.20;99.90;;;;;;5024668;28;20526;-74
2022/05/06 05:19:18;;;;;;;14.87;13.10;;;15.20;99.90;;;;;;5011248;28;20193;-74
2022/05/06 05:21:43;;;;;;;14.90;12.63;;;15.30;99.90;;;;;;5007878;28;20281;-74
2022/05/06 05:24:09;;;;;;;17.50;13.70;;;15.40;99.90;;;;;;5010718;28;20671;-74
2022/05/06 05:26:35;;;;;;;18.13;12.70;;;15.40;99.90;;;;;;5011637;28;20196;-74
2022/05/06 05:29:01;;;;;;;15.20;13.33;;;15.40;99.90;;;;;;5000338;28;20283;-73
2022/05/06 05:31:27;;;;;;;19.53;12.97;;;15.30;99.90;;;;;;5006743;28;20246;-74
2022/05/06 05:33:52;;;;;;;15.30;13.30;;;15.20;99.90;;;;;;5006731;28;21025;-74
2022/05/06 05:36:19;;;;;;;20.80;15.20;;;15.20;99.90;;;;;;5006388;28;20196;-74
2022/05/06 05:38:44;;;;;;;23.00;14.00;;;15.20;99.90;;;;;;5009478;28;20191;-73
2022/05/06 05:41:11;;;;;;;15.63;12.50;;;15.30;99.90;;;;;;5008670;28;20439;-74
2022/05/06 05:49:06;;;;;;;16.50;12.00;;;15.20;99.90;;;;;;5010933;28;20434;-74
2022/05/06 05:51:34;;;;;;;14.00;12.13;;;15.40;99.90;;;;;;5012573;28;20467;-73
2022/05/06 05:54:00;;;;;;;14.43;12.50;;;15.60;99.90;;;;;;5010000;28;20200;-73
2022/05/06 05:56:26;;;;;;;14.97;12.00;;;15.60;99.90;;;;;;5010082;28;20787;-74
2022/05/06 05:58:52;;;;;;;16.40;12.80;;;15.60;99.90;;;;;;5015187;28;20672;-73
2022/05/06 06:01:18;;;;;;;13.60;11.73;;;15.70;99.90;;;;;;5014485;28;20289;-73
2022/05/06 06:03:44;;;;;;;14.53;12.13;;;15.60;99.90;;;;;;5006868;28;20204;-73
2022/05/06 06:06:10;;;;;;;18.47;11.70;;;15.60;99.90;;;;;;5006883;28;20454;-73
2022/05/06 06:08:36;;;;;;;17.30;11.40;;;15.60;99.90;;;;;;5029490;28;20184;-73
2022/05/06 06:11:03;;;;;;;18.43;10.70;;;15.60;99.90;;;;;;5003268;28;20468;-72
2022/05/06 06:13:32;;;;;;;15.37;10.80;;;15.70;99.90;;;;;;5010254;28;20215;-73
2022/05/06 06:15:58;;;;;;;14.40;10.60;;;15.70;99.90;;;;;;5011446;28;20447;-73
2022/05/06 06:18:26;;;;;;;15.20;12.17;;;15.80;99.90;;;;;;5006503;28;20430;-72
2022/05/06 06:20:56;;;;;;;17.83;11.90;;;15.90;99.90;;;;;;5012554;28;20181;-73
2022/05/06 06:23:22;;;;;;;13.17;10.20;;;15.90;99.90;;;;;;5012818;28;20520;-73
2022/05/06 06:25:48;;;;;;;13.87;10.40;;;15.90;99.90;;;;;;5009257;28;20522;-73
2022/05/06 06:28:14;;;;;;;13.33;10.07;;;15.90;99.90;;;;;;5010688;28;20521;-73
2022/05/06 06:30:40;;;;;;;14.23;11.43;;;15.90;99.90;;;;;;5013607;28;20558;-73
2022/05/06 06:33:07;;;;;;;13.90;10.70;;;15.90;99.90;;;;;;5016655;28;20285;-73
2022/05/06 06:35:33;;;;;;;12.90;11.20;;;16.00;99.90;;;;;;5011961;28;20521;-73
2022/05/06 06:38:00;;;;;;;14.07;10.00;;;15.80;99.90;;;;;;5013284;28;20522;-72
2022/05/06 06:40:26;;;;;;;17.97;10.80;;;15.90;99.90;;;;;;5014018;28;20177;-73
2022/05/06 06:42:51;;;;;;;19.83;11.03;;;15.90;99.90;;;;;;5012848;28;20520;-73
2022/05/06 06:45:17;;;;;;;13.73;10.40;;;16.00;99.90;;;;;;5013729;28;20435;-73
2022/05/06 06:47:43;;;;;;;17.60;10.43;;;16.00;99.90;;;;;;5011767;28;20260;-72
2022/05/06 06:50:09;;;;;;;18.50;10.50;;;16.10;99.90;;;;;;5015019;28;20644;-73
2022/05/06 06:52:35;;;;;;;11.93;9.90;;;16.10;99.90;;;;;;5015760;28;20987;-72
2022/05/06 06:55:01;;;;;;;11.27;8.80;;;16.10;99.90;;;;;;5014028;28;20428;-73
2022/05/06 06:57:30;;;;;;;12.07;9.70;;;16.10;99.90;;;;;;5015373;28;20846;-73
2022/05/06 06:59:55;;;;;;;13.57;9.00;;;16.10;99.90;;;;;;5010581;28;20534;-72
2022/05/06 07:02:21;;;;;;;13.30;8.87;;;16.20;99.90;;;;;;5010355;28;20514;-73
2022/05/06 07:04:47;;;;;;;16.97;10.57;;;16.20;99.90;;;;;;5013977;28;20747;-73
2022/05/06 07:12:42;;;;;;;11.23;8.03;;;16.40;99.90;;;;;;5012823;28;20509;-73
2022/05/06 07:15:08;;;;;;;10.00;8.70;;;16.30;99.90;;;;;;5013005;28;20435;-73
2022/05/06 07:17:34;;;;;;;11.07;9.77;;;16.40;99.90;;;;;;5012697;28;20431;-72
2022/05/06 07:20:00;;;;;;;10.20;9.10;;;16.30;99.90;;;;;;5013855;28;21903;-72
2022/05/06 07:22:26;;;;;;;10.10;8.50;;;16.40;99.90;;;;;;5014138;28;20435;-73
2022/05/06 07:24:51;;;;;;;12.13;8.63;;;16.30;99.90;;;;;;5011740;28;20178;-73
2022/05/06 07:27:18;;;;;;;11.83;9.00;;;16.30;99.90;;;;;;5009655;28;20184;-73
2022/05/06 07:29:44;;;;;;;11.03;8.17;;;16.40;99.90;;;;;;5013877;28;20189;-72
2022/05/06 07:32:10;;;;;;;11.80;9.37;;;16.40;99.90;;;;;;5025190;28;20467;-72
2022/05/06 07:34:36;;;;;;;9.70;8.23;;;16.40;99.90;;;;;;5009930;28;20431;-71
2022/05/06 07:37:02;;;;;;;9.50;7.90;;;16.50;99.90;;;;;;5000812;28;20423;-71
2022/05/06 07:39:28;;;;;;;11.20;8.33;;;16.50;99.90;;;;;;5010174;28;20454;-72
2022/05/06 07:41:53;;;;;;;11.33;8.37;;;16.50;99.90;;;;;;5009530;28;20447;-72
2022/05/06 07:44:19;;;;;;;13.03;8.60;;;16.40;99.90;;;;;;5005806;28;20211;-73
2022/05/06 07:46:45;;;;;;;10.57;7.77;;;16.40;99.90;;;;;;5010398;28;20185;-73
2022/05/06 07:49:11;;;;;;;10.50;8.73;;;16.50;99.90;;;;;;5010767;28;20203;-73
2022/05/06 07:51:37;;;;;;;10.23;8.70;;;16.50;99.90;;;;;;5007756;28;20212;-72
2022/05/06 07:54:03;;;;;;;9.57;8.40;;;16.60;99.90;;;;;;5010223;28;20467;-73
2022/05/06 07:56:29;;;;;;;11.73;9.10;;;16.70;99.90;;;;;;5008441;28;20201;-73
2022/05/06 07:58:56;;;;;;;14.37;8.23;;;16.70;99.90;;;;;;5011477;28;21074;-74
2022/05/06 08:06:51;;;;;;;13.23;8.27;;;16.70;99.90;;;;;;5009104;28;20435;-74
2022/05/06 08:09:17;;;;;;;11.30;8.20;;;16.80;99.90;;;;;;5013971;28;20997;-75
2022/05/06 08:11:43;;;;;;;9.40;7.57;;;17.00;99.90;;;;;;5010106;28;20465;-74
2022/05/06 08:14:08;;;;;;;14.17;8.50;;;17.00;99.90;;;;;;5011230;28;20212;-73
2022/05/06 08:16:34;;;;;;;17.40;8.30;;;17.10;99.90;;;;;;5013290;28;20611;-73
2022/05/06 08:19:00;;;;;;;10.83;7.97;;;17.00;99.90;;;;;;5009632;28;20712;-74
2022/05/06 08:21:25;;;;;;;9.40;7.03;;;17.00;99.90;;;;;;5011166;28;20825;-73
2022/05/06 08:23:52;;;;;;;10.17;7.40;;;17.30;99.90;;;;;;5010634;28;20197;-72
2022/05/06 08:26:18;;;;;;;8.93;7.50;;;17.50;99.90;;;;;;5005504;28;20233;-73
2022/05/06 08:28:44;;;;;;;14.27;8.63;;;17.60;99.90;;;;;;5010465;28;20554;-72
2022/05/06 08:31:10;;;;;;;12.60;8.30;;;17.50;99.90;;;;;;5010564;28;21221;-73
2022/05/06 08:33:35;;;;;;;12.50;7.47;;;17.60;99.90;;;;;;5012847;28;20447;-73
2022/05/06 08:36:02;;;;;;;8.70;7.37;;;17.80;99.90;;;;;;5013702;28;20197;-72
2022/05/06 08:38:27;;;;;;;10.37;7.83;;;18.00;99.90;;;;;;5013665;28;20583;-71
2022/05/06 08:40:53;;;;;;;8.33;7.33;;;18.10;99.90;;;;;;5008503;28;20432;-72
2022/05/06 08:43:19;;;;;;;9.43;7.07;;;18.10;99.90;;;;;;5008910;28;20208;-73
2022/05/06 08:51:25;;;;;;;8.53;7.17;;;18.20;99.90;;;;;;5007927;28;20990;-73
2022/05/06 08:53:51;;;;;;;9.40;7.67;;;18.30;99.90;;;;;;5011248;28;21017;-71
2022/05/06 08:56:16;;;;;;;11.90;8.03;;;18.50;99.90;;;;;;5003316;28;20443;-72
2022/05/06 08:58:42;;;;;;;10.80;8.17;;;18.60;99.90;;;;;;5011053;28;20435;-72
2022/05/06 09:01:10;;;;;;;8.83;6.87;;;18.80;99.90;;;;;;5010542;28;20184;-73
2022/05/06 09:03:40;;;;;;;9.00;7.30;;;19.00;99.90;;;;;;5011071;28;20308;-72
2022/05/06 09:06:17;;;;;;;9.90;6.83;;;19.00;99.90;;;;;;5011382;28;20438;-73
2022/05/06 09:08:43;;;;;;;8.43;7.50;;;19.10;99.90;;;;;;5008807;28;20438;-72
2022/05/06 09:11:10;;;;;;;12.10;7.87;;;19.30;99.90;;;;;;5007957;28;20459;-71
2022/05/06 09:13:58;;;;;;;9.73;6.77;;;19.30;99.90;;;;;;5009039;28;20455;-72
2022/05/06 09:16:40;;;;;;;8.07;6.80;;;19.30;99.90;;;;;;5011776;28;20909;-71
2022/05/06 09:19:13;;;;;;;8.70;7.37;;;19.30;99.90;;;;;;5005655;28;20439;-74
2022/05/06 09:22:17;;;;;;;8.50;6.77;;;19.50;99.90;;;;;;5029335;28;20436;-74
2022/05/06 09:24:47;;;;;;;8.43;7.47;;;19.50;99.90;;;;;;5009020;28;20569;-73
2022/05/06 09:27:18;;;;;;;9.17;7.20;;;19.40;99.90;;;;;;5014467;28;20444;-72
2022/05/06 09:29:49;;;;;;;14.50;6.80;;;19.40;99.90;;;;;;5012313;28;20447;-73
2022/05/06 09:32:25;;;;;;;8.27;6.83;;;19.50;99.90;;;;;;5027906;28;20470;-74
2022/05/06 09:35:07;;;;;;;9.20;6.57;;;19.50;99.90;;;;;;5010772;28;21078;-74
2022/05/06 09:37:42;;;;;;;13.73;8.20;;;19.50;99.90;;;;;;5010140;28;20442;-74
2022/05/06 09:40:15;;;;;;;12.83;6.77;;;19.50;99.90;;;;;;5004215;28;20666;-73
2022/05/06 09:42:45;;;;;;;17.33;12.63;;;19.40;99.90;;;;;;5007000;28;20451;-74
2022/05/06 09:45:13;;;;;;;11.43;9.40;;;19.40;99.90;;;;;;5006381;28;20446;-74
2022/05/06 09:47:40;;;;;;;9.47;7.93;;;19.40;99.90;;;;;;5009215;28;20445;-74
2022/05/06 09:50:09;;;;;;;10.47;6.97;;;19.50;99.90;;;;;;5004445;28;20432;-74
2022/05/06 09:52:36;;;;;;;9.43;6.33;;;19.60;99.90;;;;;;5003496;28;21076;-74
2022/05/06 09:55:05;;;;;;;7.43;6.70;;;19.60;99.90;;;;;;5005764;28;20431;-74
2022/05/06 09:57:32;;;;;;;15.50;11.40;;;19.60;99.90;;;;;;5008970;28;20494;-75
2022/05/06 09:59:57;;;;;;;11.63;9.47;;;19.70;99.90;;;;;;5006766;28;20453;-75
2022/05/06 10:02:23;;;;;;;8.10;6.73;;;19.70;99.90;;;;;;5010885;28;20507;-74
2022/05/06 10:04:49;;;;;;;7.33;6.63;;;19.80;99.90;;;;;;5005684;28;20216;-74
2022/05/06 10:07:17;;;;;;;6.67;5.97;;;19.80;99.90;;;;;;5005804;28;20551;-74
2022/05/06 10:10:02;;;;;;;12.50;9.10;;;19.60;99.90;;;;;;5004920;28;20185;-74
2022/05/06 10:12:36;;;;;;;11.77;5.87;;;19.70;99.90;;;;;;5006491;28;20471;-74
2022/05/06 10:15:05;;;;;;;10.00;8.60;;;19.90;99.90;;;;;;5010418;28;20426;-74
2022/05/06 10:17:52;;;;;;;10.43;6.23;;;20.10;99.90;;;;;;5008036;28;20502;-74
2022/05/06 10:20:51;;;;;;;8.00;5.33;;;20.20;99.90;;;;;;5022209;28;20424;-74
2022/05/06 10:23:18;;;;;;;6.10;5.50;;;20.10;99.90;;;;;;5014236;28;20459;-71
2022/05/06 10:25:44;;;;;;;6.27;5.17;;;20.20;99.90;;;;;;5007170;28;20432;-72
2022/05/06 10:34:17;;;;;;;5.10;3.70;;;20.50;99.90;;;;;;5021762;28;20530;-72
2022/05/06 10:36:48;;;;;;;6.47;4.73;;;20.60;99.90;;;;;;5004794;28;20432;-71
2022/05/06 10:39:24;;;;;;;4.40;3.20;;;20.60;99.90;;;;;;5005926;28;20942;-72
2022/05/06 10:42:14;;;;;;;4.63;3.47;;;20.70;99.90;;;;;;5010059;28;21217;-71
2022/05/06 10:44:41;;;;;;;6.40;3.40;;;20.70;99.90;;;;;;5009232;28;20455;-71
2022/05/06 10:47:13;;;;;;;4.30;3.20;;;20.80;99.90;;;;;;5006922;28;20808;-72
2022/05/06 10:49:53;;;;;;;6.27;3.10;;;20.90;99.90;;;;;;5007204;28;20454;-72
2022/05/06 10:52:25;;;;;;;3.43;3.00;;;20.80;99.90;;;;;;5012125;28;20459;-71
2022/05/06 10:54:54;;;;;;;4.13;2.90;;;20.80;99.90;;;;;;5007055;28;21223;-72
2022/05/06 10:57:24;;;;;;;5.60;3.00;;;20.80;99.90;;;;;;5007467;28;20435;-72
2022/05/06 11:00:00;;;;;;;5.00;2.90;;;20.90;98.50;;;;;;5009061;28;20441;-73
2022/05/06 11:02:30;;;;;;;4.80;4.20;;;20.90;97.10;;;;;;5006132;28;20497;-71
2022/05/06 11:04:55;;;;;;;8.10;7.00;;;21.00;97.00;;;;;;5007740;28;20431;-72
2022/05/06 11:07:21;;;;;;;7.00;5.83;;;21.20;96.80;;;;;;5010682;28;20806;-72
2022/05/06 11:09:47;;;;;;;11.00;5.10;;;21.40;95.80;;;;;;5013163;28;20184;-71
2022/05/06 11:12:40;;;;;;;10.60;4.67;;;21.60;96.10;;;;;;5010017;28;20549;-72
2022/05/06 11:15:08;;;;;;;8.73;3.80;;;21.70;93.80;;;;;;5011470;28;20505;-72
2022/05/06 11:17:34;;;;;;;4.40;2.90;;;21.80;93.70;;;;;;5016746;28;20427;-72
2022/05/06 11:20:15;;;;;;;6.50;3.00;;;21.80;92.30;;;;;;5010955;28;20435;-72
2022/05/06 11:22:52;;;;;;;5.90;3.43;;;21.90;90.90;;;;;;5017289;28;20461;-72
2022/05/06 11:25:17;;;;;;;4.53;3.23;;;22.00;88.70;;;;;;5011617;28;20529;-72
2022/05/06 11:27:43;;;;;;;5.00;2.83;;;22.20;88.20;;;;;;5012374;28;20436;-72
2022/05/06 11:30:16;;;;;;;3.20;2.67;;;22.40;83.30;;;;;;5008824;28;20899;-72
2022/05/06 11:32:53;;;;;;;5.43;2.97;;;22.50;84.70;;;;;;5014921;28;20227;-72
2022/05/06 11:35:20;;;;;;;6.50;3.27;;;22.50;80.40;;;;;;5031621;28;20769;-72
2022/05/06 11:37:46;;;;;;;3.90;2.80;;;22.70;80.90;;;;;;5011720;28;20439;-72
2022/05/06 11:40:34;;;;;;;2.87;2.63;;;22.70;76.30;;;;;;5020971;28;20443;-70
2022/05/06 11:43:00;;;;;;;4.20;2.80;;;22.80;77.70;;;;;;5012775;28;20526;-73
2022/05/06 11:48:12;;;;;;;3.60;3.00;;;23.20;73.30;;;;;;5013650;28;20449;-72
2022/05/06 11:50:39;;;;;;;3.80;2.40;;;23.30;73.00;;;;;;5009898;28;20530;-73
2022/05/06 11:53:08;;;;;;;3.70;2.90;;;23.50;73.70;;;;;;5004133;28;20463;-72
2022/05/06 11:55:36;;;;;;;7.00;2.70;;;23.70;74.70;;;;;;5010391;28;20460;-72
2022/05/06 11:58:05;;;;;;;6.93;2.90;;;24.30;73.30;;;;;;5016046;28;20873;-73
2022/05/06 12:00:32;;;;;;;3.17;2.43;;;24.80;69.50;;;;;;5009529;28;20458;-72
2022/05/06 12:03:03;;;;;;;3.00;2.70;;;25.50;68.70;;;;;;5007084;28;20493;-72
2022/05/06 12:05:28;;;;;;;4.30;2.57;;;26.60;64.60;;;;;;5007250;28;20440;-73
2022/05/06 12:07:54;;;;;;;3.10;2.80;;;28.10;59.70;;;;;;5012162;28;21003;-72
2022/05/06 12:10:34;;;;;;;4.27;2.80;;;28.80;55.30;;;;;;5010552;28;20176;-73
2022/05/06 12:13:08;;;;;;;7.00;2.80;;;28.90;53.10;;;;;;5010983;28;20226;-73
2022/05/06 12:15:37;;;;;;;4.20;3.27;;;29.40;53.10;;;;;;5005819;28;20428;-73
2022/05/06 12:18:07;;;;;;;4.33;3.93;;;29.60;50.40;;;;;;5007305;28;20427;-72
2022/05/06 12:20:36;;;;;;;10.97;9.87;;;30.50;51.00;;;;;;5007418;28;20426;-70
2022/05/06 12:23:02;;;;;;;3.20;2.90;;;30.50;48.60;;;;;;5007680;28;20460;-72
2022/05/06 12:25:28;;;;;;;4.63;3.63;;;29.90;48.10;;;;;;5014959;28;20423;-73
2022/05/06 12:28:03;;;;;;;3.60;3.30;;;30.40;47.10;;;;;;5014196;28;20473;-73
2022/05/06 12:30:33;;;;;;;3.17;2.87;;;31.20;47.40;;;;;;5012763;28;20284;-72
2022/05/06 12:33:07;;;;;;;6.93;3.67;;;31.90;46.00;;;;;;5011014;28;20474;-73
2022/05/06 12:35:55;;;;;;;4.50;3.37;;;32.50;44.70;;;;;;5015332;28;20969;-73
2022/05/06 12:38:45;;;;;;;10.20;4.17;;;33.20;43.30;;;;;;5013407;28;20439;-73
2022/05/06 12:41:27;;;;;;;4.40;3.10;;;33.60;42.30;;;;;;5013645;28;20444;-73
2022/05/06 12:43:57;;;;;;;3.00;2.67;;;33.90;42.10;;;;;;5009632;28;20517;-73
2022/05/06 12:46:34;;;;;;;3.30;2.80;;;34.60;40.30;;;;;;5013015;28;20523;-73
2022/05/06 12:51:45;;;;;;;3.60;2.83;;;35.50;38.40;;;;;;5012169;28;20481;-72
2022/05/06 12:54:12;;;;;;;3.20;2.90;;;35.70;37.20;;;;;;5011419;28;20446;-72
2022/05/06 12:56:40;;;;;;;3.83;2.60;;;36.00;37.70;;;;;;5013071;28;20395;-73
2022/05/06 12:59:06;;;;;;;11.13;4.67;;;37.50;37.20;;;;;;5007980;28;20510;-72
2022/05/06 13:01:33;;;;;;;5.70;3.90;;;37.90;35.40;;;;;;5012689;28;20450;-72
2022/05/06 13:03:59;;;;;;;3.40;2.40;;;36.90;34.30;;;;;;5012635;28;20422;-72
2022/05/06 13:06:25;;;;;;;2.90;2.60;;;35.40;34.80;;;;;;5010839;28;20562;-72
2022/05/06 13:08:52;;;;;;;6.33;5.03;;;35.00;36.40;;;;;;5009997;28;20857;-73
2022/05/06 13:11:17;;;;;;;3.00;2.70;;;35.20;35.40;;;;;;5008503;28;20213;-72
2022/05/06 13:13:43;;;;;;;4.07;3.23;;;34.90;35.60;;;;;;5013786;28;20481;-72
2022/05/06 13:16:09;;;;;;;4.10;3.10;;;35.00;35.10;;;;;;5012840;28;20173;-73
2022/05/06 13:18:35;;;;;;;4.83;3.00;;;35.10;35.90;;;;;;5013605;28;20188;-72
2022/05/06 13:21:01;;;;;;;3.30;2.93;;;34.90;36.10;;;;;;5007629;28;21149;-73
2022/05/06 13:23:27;;;;;;;7.40;4.63;;;36.10;35.30;;;;;;5007686;28;20598;-73
2022/05/06 13:25:53;;;;;;;6.03;5.43;;;37.50;34.50;;;;;;5010616;28;20427;-72
2022/05/06 13:28:19;;;;;;;4.07;3.00;;;39.00;33.30;;;;;;5008748;28;20243;-73